createdAt,value
2023-02-05T00:02:08.813Z,11.90
2023-02-05T00:04:35.418Z,11.10
2023-02-05T00:07:01.921Z,10.00
2023-02-05T00:09:28.381Z,8.30
2023-02-05T00:11:55.127Z,8.60
2023-02-05T00:14:21.545Z,11.60
2023-02-05T00:16:48.103Z,12.00
2023-02-05T00:19:14.684Z,14.80
2023-02-05T00:21:41.068Z,15.10
2023-02-05T00:24:08.125Z,14.50
2023-02-05T00:26:35.869Z,11.60
2023-02-05T00:29:03.271Z,8.30
2023-02-05T00:31:29.960Z,9.50
2023-02-05T00:33:56.546Z,11.20
2023-02-05T00:36:23.183Z,15.30
2023-02-05T00:38:50.292Z,13.90
2023-02-05T00:41:17.443Z,18.10
2023-02-05T00:43:44.086Z,16.20
2023-02-05T00:46:11.089Z,13.10
2023-02-05T00:48:38.271Z,10.20
2023-02-05T00:51:05.076Z,11.70
2023-02-05T00:53:31.623Z,10.30
2023-02-05T00:55:58.192Z,9.90
2023-02-05T00:58:24.853Z,7.60
2023-02-05T01:00:51.312Z,10.80
2023-02-05T01:03:18.510Z,7.90
2023-02-05T01:05:45.412Z,8.40
2023-02-05T01:08:12.543Z,9.70
2023-02-05T01:10:42.577Z,7.10
2023-02-05T01:13:08.997Z,6.60
2023-02-05T01:15:35.710Z,7.70
2023-02-05T01:18:02.341Z,7.90
2023-02-05T01:20:28.807Z,7.20
2023-02-05T01:22:55.292Z,7.80
2023-02-05T01:25:21.898Z,8.10
2023-02-05T01:27:48.338Z,10.60
2023-02-05T01:30:15.073Z,9.10
2023-02-05T01:32:41.792Z,12.20
2023-02-05T01:35:08.435Z,8.80
2023-02-05T01:37:35.162Z,9.60
2023-02-05T01:40:01.736Z,8.50
2023-02-05T01:42:29.467Z,8.90
2023-02-05T01:45:14.657Z,9.00
2023-02-05T01:47:41.094Z,5.60
2023-02-05T01:50:07.427Z,9.50
2023-02-05T01:52:33.785Z,8.10
2023-02-05T01:55:01.685Z,6.90
2023-02-05T01:57:28.354Z,8.90
2023-02-05T01:59:54.750Z,7.60
2023-02-05T02:02:21.101Z,7.60
2023-02-05T02:04:53.781Z,5.60
2023-02-05T02:07:21.369Z,7.20
2023-02-05T02:09:48.065Z,8.70
2023-02-05T02:12:16.945Z,6.10
2023-02-05T02:14:45.036Z,12.10
2023-02-05T02:17:11.956Z,9.70
2023-02-05T02:19:51.167Z,9.90
2023-02-05T02:22:36.242Z,9.00
2023-02-05T02:25:17.466Z,11.10
2023-02-05T02:27:46.411Z,11.00
2023-02-05T02:30:23.476Z,7.00
2023-02-05T02:33:00.565Z,9.40
2023-02-05T02:35:31.889Z,11.40
2023-02-05T02:38:13.425Z,8.60
2023-02-05T02:40:39.773Z,8.60
2023-02-05T02:43:18.350Z,10.00
2023-02-05T02:45:48.136Z,10.50
2023-02-05T02:48:15.652Z,10.70
2023-02-05T02:50:44.031Z,11.50
2023-02-05T02:53:18.709Z,8.00
2023-02-05T02:55:47.081Z,10.50
2023-02-05T02:58:15.768Z,7.10
2023-02-05T03:00:44.315Z,10.60
2023-02-05T03:03:11.932Z,10.00
2023-02-05T03:05:41.428Z,9.00
2023-02-05T03:08:18.784Z,7.30
2023-02-05T03:10:47.592Z,11.20
2023-02-05T03:13:14.431Z,10.30
2023-02-05T03:15:42.464Z,10.50
2023-02-05T03:18:09.218Z,10.20
2023-02-05T03:20:38.293Z,13.50
2023-02-05T03:23:04.707Z,10.00
2023-02-05T03:25:31.238Z,12.60
2023-02-05T03:27:58.022Z,13.40
2023-02-05T03:30:27.187Z,9.00
2023-02-05T03:33:12.129Z,9.70
2023-02-05T03:35:45.848Z,13.10
2023-02-05T03:38:15.248Z,13.10
2023-02-05T03:40:57.100Z,12.30
2023-02-05T03:43:42.607Z,9.50
2023-02-05T03:46:15.424Z,9.60
2023-02-05T03:48:41.814Z,13.70
2023-02-05T03:51:14.457Z,6.60
2023-02-05T03:53:46.960Z,8.90
2023-02-05T03:56:17.002Z,8.20
2023-02-05T03:58:45.897Z,11.10
2023-02-05T04:01:12.578Z,8.80
2023-02-05T04:03:39.051Z,7.10
2023-02-05T04:06:06.251Z,10.30
2023-02-05T04:08:32.683Z,10.30
2023-02-05T04:10:59.034Z,8.20
2023-02-05T04:13:25.402Z,7.80
2023-02-05T04:15:51.818Z,10.00
2023-02-05T04:18:18.533Z,8.30
2023-02-05T04:20:45.090Z,8.30
2023-02-05T04:23:11.499Z,10.60
2023-02-05T04:25:38.602Z,10.40
2023-02-05T04:28:05.815Z,14.10
2023-02-05T04:30:32.843Z,12.00
2023-02-05T04:32:59.282Z,12.70
2023-02-05T04:35:25.710Z,10.90
2023-02-05T04:37:52.496Z,11.40
2023-02-05T04:40:18.947Z,9.80
2023-02-05T04:42:45.377Z,13.10
2023-02-05T04:45:12.107Z,13.90
2023-02-05T04:47:38.596Z,22.20
2023-02-05T04:50:05.168Z,20.60
2023-02-05T04:52:31.599Z,13.80
2023-02-05T04:54:57.991Z,17.40
2023-02-05T04:57:24.444Z,25.00
2023-02-05T04:59:50.970Z,19.30
2023-02-05T05:02:17.382Z,21.90
2023-02-05T05:04:43.908Z,22.50
2023-02-05T05:07:10.374Z,22.20
2023-02-05T05:09:36.841Z,16.30
2023-02-05T05:12:03.285Z,17.10
2023-02-05T05:14:29.665Z,13.60
2023-02-05T05:16:56.090Z,11.70
2023-02-05T05:19:22.523Z,9.40
2023-02-05T05:21:48.900Z,13.50
2023-02-05T05:24:15.267Z,12.90
2023-02-05T05:26:44.375Z,14.90
2023-02-05T05:29:11.023Z,12.50
2023-02-05T05:31:37.405Z,18.50
2023-02-05T05:34:03.984Z,17.70
2023-02-05T05:36:30.576Z,13.80
2023-02-05T05:39:16.980Z,19.40
2023-02-05T05:42:01.657Z,16.20
2023-02-05T05:44:28.154Z,12.60
2023-02-05T05:46:54.619Z,14.60
2023-02-05T05:49:21.039Z,15.80
2023-02-05T05:51:47.550Z,16.00
2023-02-05T05:54:13.975Z,17.20
2023-02-05T05:56:40.390Z,15.60
2023-02-05T05:59:06.748Z,13.40
2023-02-05T06:01:33.190Z,13.90
2023-02-05T06:03:59.639Z,12.50
2023-02-05T06:06:26.029Z,12.20
2023-02-05T06:08:52.423Z,12.60
2023-02-05T06:11:18.806Z,17.80
2023-02-05T06:13:45.162Z,13.50
2023-02-05T06:16:11.694Z,10.90
2023-02-05T06:18:38.132Z,17.50
2023-02-05T06:21:05.335Z,19.50
2023-02-05T06:23:32.268Z,20.70
2023-02-05T06:25:58.754Z,20.60
2023-02-05T06:28:25.183Z,13.80
2023-02-05T06:30:51.664Z,15.30
2023-02-05T06:33:18.078Z,13.10
2023-02-05T06:35:44.500Z,14.80
2023-02-05T06:38:10.821Z,11.30
2023-02-05T06:40:37.242Z,10.00
2023-02-05T06:43:03.653Z,11.00
2023-02-05T06:45:30.137Z,13.00
2023-02-05T06:47:57.140Z,10.80
2023-02-05T06:50:23.719Z,14.80
2023-02-05T06:52:50.690Z,15.40
2023-02-05T06:55:17.357Z,15.80
2023-02-05T06:59:28.696Z,15.50
2023-02-05T07:01:56.481Z,9.60
2023-02-05T07:04:24.474Z,11.70
2023-02-05T07:06:54.312Z,14.50
2023-02-05T07:09:22.013Z,18.40
2023-02-05T07:11:50.054Z,22.60
2023-02-05T07:14:17.962Z,26.40
2023-02-05T07:16:45.854Z,29.10
2023-02-05T07:19:13.872Z,23.50
2023-02-05T07:21:41.761Z,20.80
2023-02-05T07:24:09.698Z,21.10
2023-02-05T07:26:38.757Z,20.30
2023-02-05T07:29:06.669Z,14.90
2023-02-05T07:31:34.884Z,19.80
2023-02-05T07:34:02.816Z,14.50
2023-02-05T07:36:30.593Z,17.30
2023-02-05T07:38:58.476Z,18.30
2023-02-05T07:41:29.115Z,21.10
2023-02-05T07:43:56.888Z,21.50
2023-02-05T07:46:24.928Z,22.70
2023-02-05T07:48:52.892Z,27.30
2023-02-05T07:51:22.589Z,22.20
2023-02-05T07:53:51.085Z,20.70
2023-02-05T07:56:21.937Z,15.40
2023-02-05T07:58:49.809Z,39.40
2023-02-05T08:01:17.680Z,21.00
2023-02-05T08:03:45.573Z,20.50
2023-02-05T08:06:14.820Z,26.00
2023-02-05T08:08:43.128Z,18.60
2023-02-05T08:11:13.872Z,13.10
2023-02-05T08:13:42.341Z,13.40
2023-02-05T08:16:10.351Z,16.70
2023-02-05T08:18:39.001Z,17.70
2023-02-05T08:21:07.214Z,15.60
2023-02-05T08:23:35.030Z,16.60
2023-02-05T08:26:02.789Z,20.80
2023-02-05T08:28:30.603Z,22.00
2023-02-05T08:30:58.765Z,19.30
2023-02-05T08:33:26.601Z,20.10
2023-02-05T08:35:54.488Z,19.00
2023-02-05T08:38:22.381Z,17.20
2023-02-05T08:40:50.224Z,19.10
2023-02-05T08:43:18.010Z,18.50
2023-02-05T08:45:47.192Z,20.70
2023-02-05T08:48:15.286Z,13.70
2023-02-05T08:50:46.957Z,15.60
2023-02-05T08:53:17.322Z,14.10
2023-02-05T08:55:46.207Z,20.50
2023-02-05T08:58:14.441Z,16.30
2023-02-05T09:00:42.243Z,15.90
2023-02-05T09:03:10.159Z,23.90
2023-02-05T09:05:38.935Z,18.20
2023-02-05T09:08:06.882Z,17.50
2023-02-05T09:10:34.829Z,17.50
2023-02-05T09:13:02.752Z,15.70
2023-02-05T09:15:30.535Z,13.50
2023-02-05T09:17:58.573Z,14.50
2023-02-05T09:20:26.924Z,17.20
2023-02-05T09:22:55.679Z,19.70
2023-02-05T09:25:23.449Z,20.70
2023-02-05T09:27:51.300Z,16.90
2023-02-05T09:30:19.203Z,14.40
2023-02-05T09:32:50.574Z,15.80
2023-02-05T09:35:18.377Z,15.70
2023-02-05T09:37:46.771Z,17.30
2023-02-05T09:40:22.789Z,21.30
2023-02-05T09:43:12.424Z,17.70
2023-02-05T09:45:59.585Z,13.80
2023-02-05T09:48:36.572Z,17.50
2023-02-05T09:51:04.985Z,14.70
2023-02-05T09:53:39.135Z,15.70
2023-02-05T09:56:08.167Z,14.50
2023-02-05T09:58:40.382Z,15.80
2023-02-05T10:01:21.693Z,16.30
2023-02-05T10:04:03.620Z,15.90
2023-02-05T10:06:50.157Z,16.20
2023-02-05T10:09:29.512Z,17.80
2023-02-05T10:12:16.493Z,17.00
2023-02-05T10:14:54.765Z,17.30
2023-02-05T10:17:47.086Z,15.30
2023-02-05T10:20:29.693Z,16.00
2023-02-05T10:23:17.221Z,17.10
2023-02-05T10:25:57.463Z,21.90
2023-02-05T10:28:31.186Z,25.00
2023-02-05T10:31:23.093Z,25.20
2023-02-05T10:33:58.734Z,33.70
2023-02-05T10:36:27.225Z,43.80
2023-02-05T10:38:56.487Z,50.50
2023-02-05T10:41:24.307Z,50.90
2023-02-05T10:43:54.247Z,55.50
2023-02-05T10:46:25.617Z,52.00
2023-02-05T10:48:57.515Z,58.40
2023-02-05T10:51:31.255Z,59.90
2023-02-05T10:54:00.882Z,61.50
2023-02-05T10:56:28.784Z,59.90
2023-02-05T10:58:58.622Z,59.40
2023-02-05T11:01:31.091Z,51.30
2023-02-05T11:04:01.111Z,37.60
2023-02-05T11:06:31.833Z,26.90
2023-02-05T11:08:59.791Z,27.30
2023-02-05T11:11:32.149Z,28.20
2023-02-05T11:14:05.769Z,33.50
2023-02-05T11:16:44.468Z,43.10
2023-02-05T11:19:21.365Z,33.20
2023-02-05T11:21:53.552Z,20.30
2023-02-05T11:24:23.883Z,22.30
2023-02-05T11:27:11.924Z,26.10
2023-02-05T11:29:40.009Z,25.80
2023-02-05T11:32:31.341Z,20.10
2023-02-05T11:35:19.527Z,30.30
2023-02-05T11:37:48.780Z,26.70
2023-02-05T11:40:24.894Z,21.00
2023-02-05T11:43:01.374Z,18.50
2023-02-05T11:45:30.538Z,16.60
2023-02-05T11:48:01.073Z,18.40
2023-02-05T11:50:29.712Z,19.80
2023-02-05T11:53:06.013Z,16.70
2023-02-05T11:55:36.335Z,16.10
2023-02-05T11:58:05.954Z,20.40
2023-02-05T12:00:36.319Z,16.30
2023-02-05T12:03:17.148Z,19.30
2023-02-05T12:05:51.044Z,18.10
2023-02-05T12:08:28.000Z,28.80
2023-02-05T12:11:01.078Z,18.00
2023-02-05T12:13:35.448Z,16.10
2023-02-05T12:16:28.900Z,16.80
2023-02-05T12:19:12.587Z,19.40
2023-02-05T12:21:43.969Z,22.00
2023-02-05T12:24:24.198Z,18.60
2023-02-05T12:26:58.111Z,16.70
2023-02-05T12:29:32.109Z,11.40
2023-02-05T12:32:19.460Z,17.80
2023-02-05T12:34:56.260Z,16.20
2023-02-05T12:37:27.761Z,12.70
2023-02-05T12:40:04.936Z,12.00
2023-02-05T12:42:35.713Z,13.50
2023-02-05T12:45:22.935Z,13.90
2023-02-05T12:47:59.890Z,12.60
2023-02-05T12:50:46.637Z,13.40
2023-02-05T12:53:29.735Z,12.70
2023-02-05T12:56:13.125Z,10.70
2023-02-05T12:58:46.510Z,14.70
2023-02-05T13:01:43.890Z,13.60
2023-02-05T13:04:39.829Z,12.10
2023-02-05T13:07:12.001Z,10.80
2023-02-05T13:10:05.156Z,14.20
2023-02-05T13:12:35.868Z,11.80
2023-02-05T13:15:21.156Z,16.00
2023-02-05T13:18:05.184Z,12.00
2023-02-05T13:20:56.616Z,15.60
2023-02-05T13:23:43.060Z,13.30
2023-02-05T13:26:25.541Z,11.90
2023-02-05T13:29:11.677Z,11.90
2023-02-05T13:31:50.091Z,13.70
2023-02-05T13:34:18.276Z,18.60
2023-02-05T13:37:05.156Z,16.90
2023-02-05T13:39:42.710Z,31.10
2023-02-05T13:42:23.402Z,16.30
2023-02-05T13:45:19.463Z,12.50
2023-02-05T13:48:03.919Z,11.90
2023-02-05T13:50:32.216Z,20.80
2023-02-05T13:53:12.650Z,19.80
2023-02-05T13:55:43.590Z,17.00
2023-02-05T13:58:14.556Z,12.60
2023-02-05T14:00:43.754Z,12.90
2023-02-05T14:03:25.424Z,12.90
2023-02-05T14:05:53.415Z,13.50
2023-02-05T14:08:22.980Z,13.90
2023-02-05T14:11:01.736Z,14.30
2023-02-05T14:13:34.522Z,16.10
2023-02-05T14:16:21.561Z,12.60
2023-02-05T14:18:51.390Z,11.20
2023-02-05T14:21:31.626Z,12.40
2023-02-05T14:24:04.009Z,14.10
2023-02-05T14:26:44.294Z,11.80
2023-02-05T14:29:31.042Z,11.00
2023-02-05T14:31:58.875Z,10.60
2023-02-05T14:34:32.790Z,10.80
2023-02-05T14:37:06.592Z,12.40
2023-02-05T14:39:38.528Z,13.70
2023-02-05T14:42:07.803Z,12.10
2023-02-05T14:44:38.109Z,15.00
2023-02-05T14:47:06.009Z,13.20
2023-02-05T14:49:34.044Z,14.70
2023-02-05T14:52:03.566Z,15.40
2023-02-05T14:54:34.077Z,18.60
2023-02-05T14:57:29.065Z,16.10
2023-02-05T14:59:59.517Z,18.60
2023-02-05T15:02:46.076Z,14.60
2023-02-05T15:05:17.390Z,16.70
2023-02-05T15:07:47.023Z,15.00
2023-02-05T15:10:18.663Z,17.00
2023-02-05T15:12:55.671Z,16.90
2023-02-05T15:15:31.660Z,15.70
2023-02-05T15:18:05.046Z,18.00
2023-02-05T15:20:36.238Z,12.10
2023-02-05T15:23:06.501Z,20.20
2023-02-05T15:25:42.564Z,21.90
2023-02-05T15:28:31.172Z,18.20
2023-02-05T15:30:59.227Z,19.90
2023-02-05T15:33:34.423Z,22.40
2023-02-05T15:36:05.880Z,24.10
2023-02-05T15:38:33.887Z,28.90
2023-02-05T15:41:05.091Z,36.50
2023-02-05T15:43:32.896Z,34.50
2023-02-05T15:46:02.866Z,30.30
2023-02-05T15:48:36.672Z,28.10
2023-02-05T15:51:20.375Z,23.50
2023-02-05T15:53:49.709Z,22.20
2023-02-05T15:56:24.355Z,18.80
2023-02-05T15:58:58.647Z,17.10
2023-02-05T16:01:48.946Z,15.10
2023-02-05T16:04:23.117Z,17.50
2023-02-05T16:06:51.142Z,17.20
2023-02-05T16:09:20.163Z,19.70
2023-02-05T16:11:48.477Z,18.30
2023-02-05T16:14:17.828Z,18.10
2023-02-05T16:16:54.711Z,21.60
2023-02-05T16:19:27.204Z,22.70
2023-02-05T16:21:59.597Z,25.40
2023-02-05T16:24:31.807Z,23.90
2023-02-05T16:27:09.461Z,24.10
2023-02-05T16:29:47.756Z,16.00
2023-02-05T16:32:30.801Z,20.00
2023-02-05T16:35:00.100Z,25.50
2023-02-05T16:37:30.414Z,30.50
2023-02-05T16:40:00.762Z,33.60
2023-02-05T16:42:35.392Z,27.00
2023-02-05T16:45:09.332Z,35.10
2023-02-05T16:47:37.521Z,36.80
2023-02-05T16:50:24.401Z,40.20
2023-02-05T16:52:57.755Z,30.60
2023-02-05T16:55:25.576Z,31.50
2023-02-05T16:57:54.222Z,29.20
2023-02-05T17:00:22.564Z,45.90
2023-02-05T17:02:53.101Z,48.00
2023-02-05T17:05:24.156Z,48.10
2023-02-05T17:07:59.916Z,64.60
2023-02-05T17:10:29.031Z,67.00
2023-02-05T17:13:05.289Z,57.50
2023-02-05T17:15:42.112Z,54.40
2023-02-05T17:18:20.170Z,56.00
2023-02-05T17:20:48.398Z,95.80
2023-02-05T17:23:17.319Z,170.80
2023-02-05T17:25:55.727Z,192.50
2023-02-05T17:28:27.486Z,231.10
2023-02-05T17:30:59.797Z,189.00
2023-02-05T17:33:28.454Z,162.90
2023-02-05T17:35:56.312Z,164.40
2023-02-05T17:38:24.293Z,163.50
2023-02-05T17:41:15.116Z,172.40
2023-02-05T17:43:43.269Z,150.70
2023-02-05T17:46:14.676Z,144.50
2023-02-05T17:48:44.822Z,200.90
2023-02-05T17:51:19.786Z,212.30
2023-02-05T17:53:48.573Z,217.70
2023-02-05T17:56:19.500Z,200.50
2023-02-05T17:58:52.618Z,170.80
2023-02-05T18:01:20.450Z,195.10
2023-02-05T18:03:48.322Z,181.60
2023-02-05T18:06:19.242Z,181.90
2023-02-05T18:08:47.424Z,180.40
2023-02-05T18:11:15.673Z,190.60
2023-02-05T18:13:46.611Z,215.50
2023-02-05T18:16:14.605Z,214.90
2023-02-05T18:18:44.561Z,234.70
2023-02-05T18:21:12.462Z,235.40
2023-02-05T18:23:40.644Z,227.90
2023-02-05T18:26:10.056Z,202.00
2023-02-05T18:28:38.127Z,211.10
2023-02-05T18:31:07.564Z,223.00
2023-02-05T18:33:36.110Z,202.90
2023-02-05T18:36:05.297Z,194.30
2023-02-05T18:38:33.811Z,187.90
2023-02-05T18:41:12.439Z,175.40
2023-02-05T18:43:40.716Z,193.20
2023-02-05T18:46:10.191Z,190.70
2023-02-05T18:48:40.922Z,216.50
2023-02-05T18:51:10.045Z,203.40
2023-02-05T18:53:39.086Z,185.90
2023-02-05T18:56:08.777Z,195.90
2023-02-05T18:58:36.686Z,212.60
2023-02-05T19:01:13.632Z,187.60
2023-02-05T19:03:42.643Z,194.00
2023-02-05T19:06:11.865Z,184.60
2023-02-05T19:08:40.957Z,176.90
2023-02-05T19:11:20.491Z,163.30
2023-02-05T19:13:54.499Z,138.00
2023-02-05T19:16:22.426Z,136.10
2023-02-05T19:18:50.542Z,155.60
2023-02-05T19:21:22.522Z,143.40
2023-02-05T19:23:56.369Z,164.80
2023-02-05T19:26:25.361Z,177.70
2023-02-05T19:28:56.424Z,168.40
2023-02-05T19:31:25.919Z,180.60
2023-02-05T19:33:55.148Z,141.60
2023-02-05T19:36:23.574Z,142.90
2023-02-05T19:38:51.412Z,164.90
2023-02-05T19:41:20.723Z,160.80
2023-02-05T19:43:59.255Z,160.00
2023-02-05T19:46:28.267Z,155.40
2023-02-05T19:48:56.723Z,157.50
2023-02-05T19:51:25.230Z,171.00
2023-02-05T19:53:55.866Z,160.20
2023-02-05T19:56:24.234Z,173.00
2023-02-05T19:58:53.631Z,156.00
2023-02-05T20:01:23.854Z,162.60
2023-02-05T20:03:55.890Z,161.50
2023-02-05T20:06:24.920Z,152.90
2023-02-05T20:08:53.162Z,174.50
2023-02-05T20:11:21.332Z,159.40
2023-02-05T20:13:49.577Z,165.00
2023-02-05T20:16:18.994Z,167.80
2023-02-05T20:18:47.910Z,163.70
2023-02-05T20:21:18.689Z,165.40
2023-02-05T20:23:47.058Z,163.90
2023-02-05T20:26:18.945Z,169.30
2023-02-05T20:29:06.313Z,161.40
2023-02-05T20:31:34.392Z,153.90
2023-02-05T20:34:03.508Z,142.10
2023-02-05T20:36:32.267Z,144.30
2023-02-05T20:39:02.483Z,154.90
2023-02-05T20:41:30.437Z,107.40
2023-02-05T20:43:58.559Z,120.20
2023-02-05T20:46:26.818Z,132.90
2023-02-05T20:48:54.880Z,138.00
2023-02-05T20:51:23.353Z,138.60
2023-02-05T20:53:51.621Z,145.60
2023-02-05T20:56:20.233Z,134.50
2023-02-05T20:58:48.073Z,141.00
2023-02-05T21:01:20.470Z,129.20
2023-02-05T21:03:49.661Z,125.20
2023-02-05T21:06:18.849Z,114.70
2023-02-05T21:08:47.442Z,107.20
2023-02-05T21:11:16.133Z,119.30
2023-02-05T21:13:44.606Z,121.20
2023-02-05T21:16:12.926Z,143.30
2023-02-05T21:18:40.774Z,157.10
2023-02-05T21:21:10.044Z,150.10
2023-02-05T21:23:37.866Z,141.50
2023-02-05T21:26:06.188Z,135.40
2023-02-05T21:28:34.360Z,147.80
2023-02-05T21:31:06.816Z,146.00
2023-02-05T21:33:35.336Z,137.00
2023-02-05T21:36:07.224Z,137.60
2023-02-05T21:38:36.180Z,123.40
2023-02-05T21:41:14.629Z,121.50
2023-02-05T21:43:42.516Z,124.80
2023-02-05T21:46:12.088Z,129.60
2023-02-05T21:48:40.736Z,121.80
2023-02-05T21:51:12.900Z,146.80
2023-02-05T21:53:41.078Z,156.40
2023-02-05T21:56:10.478Z,178.30
2023-02-05T21:58:39.866Z,172.60
2023-02-05T22:01:12.078Z,163.50
2023-02-05T22:03:40.513Z,188.60
2023-02-05T22:06:08.931Z,176.50
2023-02-05T22:08:37.813Z,165.70
2023-02-05T22:11:09.794Z,170.60
2023-02-05T22:13:38.935Z,157.80
2023-02-05T22:16:30.102Z,161.60
2023-02-05T22:18:58.778Z,134.80
2023-02-05T22:21:27.737Z,137.90
2023-02-05T22:23:56.362Z,157.10
2023-02-05T22:26:29.044Z,156.30
2023-02-05T22:28:59.238Z,150.70
2023-02-05T22:31:27.928Z,149.90
2023-02-05T22:33:56.462Z,154.10
2023-02-05T22:36:26.826Z,140.50
2023-02-05T22:38:55.490Z,143.80
2023-02-05T22:41:25.194Z,151.50
2023-02-05T22:43:57.279Z,145.60
2023-02-05T22:46:26.275Z,137.70
2023-02-05T22:48:54.321Z,131.10
2023-02-05T22:51:23.550Z,130.20
2023-02-05T22:53:55.029Z,142.00
2023-02-05T22:56:22.842Z,116.00
2023-02-05T22:58:51.704Z,123.40
2023-02-05T23:01:21.156Z,131.90
2023-02-05T23:03:50.944Z,133.40
2023-02-05T23:06:26.684Z,155.30
2023-02-05T23:08:59.122Z,126.80
2023-02-05T23:11:27.985Z,126.50
2023-02-05T23:13:56.857Z,124.40
2023-02-05T23:16:26.893Z,123.40
2023-02-05T23:18:59.449Z,111.00
2023-02-05T23:21:29.478Z,120.80
2023-02-05T23:23:57.585Z,114.70
2023-02-05T23:26:26.858Z,116.20
2023-02-05T23:28:55.663Z,113.40
2023-02-05T23:31:24.271Z,115.00
2023-02-05T23:33:54.209Z,121.30
2023-02-05T23:36:22.450Z,115.40
2023-02-05T23:38:50.625Z,115.50
2023-02-05T23:41:38.715Z,115.70
2023-02-05T23:44:18.249Z,118.60
2023-02-05T23:46:47.026Z,119.20
2023-02-05T23:49:15.172Z,110.80
2023-02-05T23:51:59.829Z,116.70
2023-02-05T23:54:27.562Z,104.10
2023-02-05T23:56:55.773Z,113.60
2023-02-05T23:59:23.511Z,105.90
